Time;durP1;ratioP1;P1;durP2;ratioP2;P2;SDS_P1;SDS_P2;PMS_P1;PMS_P2;Temp;Humidity;BMP_temperature;BMP_pressure;BME280_temperature;BME280_humidity;BME280_pressure;Samples;Min_cycle;Max_cycle;Signal;HPM_P1;HPM_P2
2023/06/13 00:01:26;;;;;;;12.70;8.00;;;18.80;63.70;;;;;;4954992;28;88473;-76
2023/06/13 00:03:53;;;;;;;11.05;8.07;;;18.80;63.80;;;;;;4954907;28;87576;-76
2023/06/13 00:06:20;;;;;;;10.88;7.80;;;18.70;64.90;;;;;;4954543;28;87742;-77
2023/06/13 00:08:47;;;;;;;11.00;8.18;;;18.60;65.00;;;;;;4954316;28;88726;-77
2023/06/13 00:11:13;;;;;;;13.95;7.63;;;18.60;66.30;;;;;;4955039;28;88851;-76
2023/06/13 00:13:41;;;;;;;9.48;8.38;;;18.50;66.20;;;;;;4955921;28;87968;-76
2023/06/13 00:16:08;;;;;;;9.50;6.88;;;18.50;65.20;;;;;;4955835;28;87231;-76
2023/06/13 00:18:37;;;;;;;10.48;7.50;;;18.40;65.10;;;;;;4954207;28;88921;-76
2023/06/13 00:21:03;;;;;;;12.48;8.57;;;18.40;67.30;;;;;;4955158;28;88489;-76
2023/06/13 00:23:29;;;;;;;9.55;7.68;;;18.30;68.30;;;;;;4954884;28;89039;-75
2023/06/13 00:25:55;;;;;;;9.90;7.70;;;18.30;67.50;;;;;;4954732;28;87566;-76
2023/06/13 00:28:21;;;;;;;12.82;8.27;;;18.20;67.30;;;;;;4955639;28;87892;-76
2023/06/13 00:30:46;;;;;;;10.77;7.95;;;18.20;67.40;;;;;;4954818;28;87969;-76
2023/06/13 00:33:16;;;;;;;10.07;8.15;;;18.10;68.30;;;;;;4953989;28;87206;-76
2023/06/13 00:35:42;;;;;;;11.20;8.63;;;18.10;68.00;;;;;;4954098;28;87773;-77
2023/06/13 00:38:08;;;;;;;12.73;8.18;;;18.00;68.80;;;;;;4955696;28;87117;-76
2023/06/13 00:40:34;;;;;;;9.70;8.25;;;17.90;69.30;;;;;;4955663;28;88378;-76
2023/06/13 00:42:59;;;;;;;12.07;7.93;;;17.90;70.50;;;;;;4955565;28;87878;-75
2023/06/13 00:45:28;;;;;;;13.88;8.40;;;17.80;70.30;;;;;;4954989;28;87607;-76
2023/06/13 00:47:57;;;;;;;10.18;8.82;;;17.70;70.70;;;;;;4954170;28;88704;-77
2023/06/13 00:50:30;;;;;;;12.93;8.38;;;17.60;70.10;;;;;;4954209;28;89495;-76
2023/06/13 00:53:19;;;;;;;14.73;8.95;;;17.60;70.00;;;;;;4954575;28;87618;-75
2023/06/13 00:55:46;;;;;;;12.95;8.80;;;17.50;70.40;;;;;;4954779;28;88354;-76
2023/06/13 00:58:13;;;;;;;14.00;8.85;;;17.50;70.60;;;;;;4954063;28;88814;-76
2023/06/13 01:00:40;;;;;;;10.82;8.38;;;17.50;71.70;;;;;;4954240;28;90018;-75
2023/06/13 01:03:09;;;;;;;12.38;8.85;;;17.40;72.10;;;;;;4954074;28;87738;-76
2023/06/13 01:05:35;;;;;;;9.52;7.80;;;17.30;70.70;;;;;;4954504;28;87142;-75
2023/06/13 01:08:06;;;;;;;10.13;8.70;;;17.30;71.00;;;;;;4954839;28;88628;-76
2023/06/13 01:10:33;;;;;;;12.00;8.10;;;17.30;71.20;;;;;;4954527;28;88325;-75
2023/06/13 01:13:08;;;;;;;11.23;8.80;;;17.20;71.50;;;;;;4954596;28;88799;-76
2023/06/13 01:15:39;;;;;;;10.70;8.48;;;17.20;71.90;;;;;;4954493;28;87472;-76
2023/06/13 01:18:08;;;;;;;11.63;8.85;;;17.20;72.30;;;;;;4954234;28;89279;-76
2023/06/13 01:20:36;;;;;;;9.20;8.05;;;17.10;72.60;;;;;;4954266;28;87577;-76
2023/06/13 01:23:25;;;;;;;13.50;8.70;;;17.10;72.60;;;;;;4953947;28;87594;-75
2023/06/13 01:26:06;;;;;;;10.48;8.95;;;17.10;73.20;;;;;;4969033;28;91124;-75
2023/06/13 01:28:33;;;;;;;13.55;9.73;;;17.00;74.70;;;;;;4954584;28;89705;-76
2023/06/13 01:31:01;;;;;;;15.80;10.38;;;16.90;73.50;;;;;;4954063;28;87454;-75
2023/06/13 01:33:27;;;;;;;13.30;8.93;;;16.90;75.40;;;;;;4954358;28;87526;-76
2023/06/13 01:35:53;;;;;;;14.75;8.93;;;16.80;74.30;;;;;;4953821;28;88415;-77
2023/06/13 01:38:19;;;;;;;14.60;9.13;;;16.80;74.50;;;;;;4953748;28;89960;-76
2023/06/13 01:40:45;;;;;;;11.98;8.93;;;16.70;75.80;;;;;;4953161;28;89506;-76
2023/06/13 01:43:10;;;;;;;12.85;9.18;;;16.70;75.00;;;;;;4954714;28;87601;-76
2023/06/13 01:45:36;;;;;;;15.82;8.82;;;16.60;76.70;;;;;;4954386;28;87851;-76
2023/06/13 01:48:16;;;;;;;14.80;9.32;;;16.50;76.70;;;;;;4954321;28;87843;-77
2023/06/13 01:51:03;;;;;;;10.70;9.25;;;16.50;77.30;;;;;;4954065;28;87940;-77
2023/06/13 01:53:36;;;;;;;11.10;8.85;;;16.40;76.70;;;;;;4954049;28;87595;-78
2023/06/13 01:56:06;;;;;;;11.85;9.32;;;16.40;76.50;;;;;;4954637;28;86898;-76
2023/06/13 01:58:40;;;;;;;12.23;9.18;;;16.30;77.40;;;;;;4953827;28;88836;-76
2023/06/13 02:01:07;;;;;;;;;;;16.30;77.80;;;;;;4954949;28;87946;-76
2023/06/13 02:03:33;;;;;;;12.38;8.95;;;16.20;76.60;;;;;;4955649;28;88655;-75
2023/06/13 02:05:59;;;;;;;12.50;10.20;;;16.20;76.10;;;;;;4952913;28;87641;-76
2023/06/13 02:08:26;;;;;;;12.52;9.38;;;16.20;77.00;;;;;;4953392;28;88127;-76
2023/06/13 02:10:52;;;;;;;14.60;10.10;;;16.10;76.70;;;;;;4953853;28;88543;-76
2023/06/13 02:13:18;;;;;;;14.52;9.77;;;16.10;77.50;;;;;;4953321;28;87718;-76
2023/06/13 02:15:44;;;;;;;16.00;9.35;;;16.10;77.50;;;;;;4954120;28;87797;-75
2023/06/13 02:18:10;;;;;;;12.15;10.00;;;16.10;78.50;;;;;;4952639;28;89470;-76
2023/06/13 02:20:36;;;;;;;13.18;9.85;;;16.00;78.30;;;;;;4953472;28;87108;-76
2023/06/13 02:23:02;;;;;;;14.20;9.73;;;16.00;78.80;;;;;;4954120;28;87676;-76
2023/06/13 02:25:28;;;;;;;15.55;9.88;;;16.00;78.90;;;;;;4953464;28;87878;-76
2023/06/13 02:27:54;;;;;;;12.98;10.82;;;15.90;79.20;;;;;;4968073;28;91022;-76
2023/06/13 02:30:19;;;;;;;13.02;9.95;;;15.90;78.60;;;;;;4952870;28;88922;-76
2023/06/13 02:32:46;;;;;;;14.75;10.45;;;15.80;79.50;;;;;;4953841;28;87871;-76
2023/06/13 02:35:13;;;;;;;16.77;11.43;;;15.80;80.10;;;;;;4952988;28;87778;-76
2023/06/13 02:37:39;;;;;;;13.18;10.25;;;15.80;79.70;;;;;;4952988;28;87836;-77
2023/06/13 02:40:07;;;;;;;19.55;11.52;;;15.70;80.10;;;;;;4952647;28;87869;-76
2023/06/13 02:42:33;;;;;;;13.18;10.02;;;15.70;81.00;;;;;;4952247;28;87630;-76
2023/06/13 02:44:59;;;;;;;14.52;10.13;;;15.60;80.50;;;;;;4953493;28;87465;-76
2023/06/13 02:47:25;;;;;;;14.73;11.52;;;15.50;80.90;;;;;;4952697;28;88257;-76
2023/06/13 02:49:50;;;;;;;13.55;11.10;;;15.50;81.40;;;;;;4954038;28;88017;-76
2023/06/13 02:52:16;;;;;;;17.25;11.38;;;15.50;81.10;;;;;;4952432;28;88715;-76
2023/06/13 02:54:41;;;;;;;14.65;10.27;;;15.40;81.80;;;;;;4953348;28;87735;-76
2023/06/13 02:57:09;;;;;;;15.52;9.85;;;15.40;81.90;;;;;;4954300;28;87865;-76
2023/06/13 02:59:34;;;;;;;14.07;10.65;;;15.30;81.70;;;;;;4939073;28;90617;-76
2023/06/13 03:02:00;;;;;;;16.23;10.68;;;15.30;82.00;;;;;;4956407;28;87907;-75
2023/06/13 03:04:28;;;;;;;15.13;11.20;;;15.30;82.70;;;;;;4955926;28;87644;-76
2023/06/13 03:06:57;;;;;;;18.45;11.90;;;15.20;83.40;;;;;;4956273;28;88298;-76
2023/06/13 03:09:22;;;;;;;18.00;12.77;;;15.20;82.90;;;;;;4956361;28;87952;-76
2023/06/13 03:11:48;;;;;;;14.80;10.88;;;15.10;82.90;;;;;;4956563;28;87696;-75
2023/06/13 03:14:16;;;;;;;17.02;10.80;;;15.10;83.00;;;;;;4955669;28;88082;-76
2023/06/13 03:16:42;;;;;;;18.58;11.48;;;15.00;82.30;;;;;;4955521;28;90661;-76
2023/06/13 03:19:08;;;;;;;15.50;10.88;;;15.00;83.60;;;;;;4954994;28;88534;-76
2023/06/13 03:21:34;;;;;;;14.15;11.00;;;15.00;83.10;;;;;;4956155;28;87597;-76
2023/06/13 03:23:59;;;;;;;15.20;11.70;;;15.00;82.30;;;;;;4955585;28;87693;-75
2023/06/13 03:26:25;;;;;;;15.65;10.82;;;15.00;83.60;;;;;;4937827;28;89009;-76
2023/06/13 03:28:51;;;;;;;14.50;11.52;;;15.00;83.90;;;;;;4956626;28;88448;-76
2023/06/13 03:31:16;;;;;;;15.77;11.45;;;14.90;84.60;;;;;;4938857;28;87619;-76
2023/06/13 03:33:42;;;;;;;14.75;11.60;;;14.90;85.20;;;;;;4956957;28;87013;-76
2023/06/13 03:36:07;;;;;;;14.93;11.18;;;14.90;85.40;;;;;;4956544;28;87561;-76
2023/06/13 03:38:33;;;;;;;15.57;11.75;;;14.80;84.70;;;;;;4956632;28;88919;-76
2023/06/13 03:40:59;;;;;;;17.92;12.75;;;14.80;85.40;;;;;;4955427;28;88699;-75
2023/06/13 03:43:26;;;;;;;17.65;11.73;;;14.80;85.90;;;;;;4956438;28;87867;-76
2023/06/13 03:45:52;;;;;;;17.95;12.57;;;14.80;85.50;;;;;;4956354;28;89231;-76
2023/06/13 03:48:19;;;;;;;17.83;11.82;;;14.70;85.40;;;;;;4956111;28;87658;-76
2023/06/13 03:50:44;;;;;;;19.80;12.38;;;14.70;85.00;;;;;;4956014;28;87586;-76
2023/06/13 03:53:10;;;;;;;16.92;12.63;;;14.70;85.10;;;;;;4955806;28;87454;-75
2023/06/13 03:55:36;;;;;;;17.55;12.77;;;14.70;86.00;;;;;;4956296;28;88886;-76
2023/06/13 03:58:02;;;;;;;18.10;11.52;;;14.70;86.40;;;;;;4938594;28;88990;-76
2023/06/13 04:00:29;;;;;;;15.07;11.18;;;14.70;84.80;;;;;;4956514;28;87823;-76
2023/06/13 04:02:55;;;;;;;16.05;12.10;;;14.70;84.40;;;;;;4956544;28;87663;-76
2023/06/13 04:05:21;;;;;;;15.57;12.18;;;14.70;84.80;;;;;;4952866;28;92619;-76
2023/06/13 04:07:47;;;;;;;17.48;12.23;;;14.70;86.50;;;;;;4954941;28;89739;-75
2023/06/13 04:10:13;;;;;;;14.50;11.38;;;14.70;86.60;;;;;;4955592;28;87796;-76
2023/06/13 04:12:38;;;;;;;16.63;11.15;;;14.70;86.50;;;;;;4956191;28;88009;-76
2023/06/13 04:15:05;;;;;;;17.05;12.02;;;14.70;86.10;;;;;;4956588;28;87641;-75
2023/06/13 04:17:32;;;;;;;14.60;11.75;;;14.70;86.80;;;;;;4955673;28;89874;-76
2023/06/13 04:19:57;;;;;;;17.58;11.50;;;14.80;85.50;;;;;;4955807;28;87639;-76
2023/06/13 04:22:23;;;;;;;14.82;11.40;;;14.80;85.70;;;;;;4956113;28;87201;-76
2023/06/13 04:24:50;;;;;;;13.80;11.23;;;14.80;86.80;;;;;;4955450;28;88204;-76
2023/06/13 04:27:19;;;;;;;15.38;11.43;;;14.90;84.80;;;;;;4955268;28;87900;-75
2023/06/13 04:29:48;;;;;;;17.30;12.23;;;14.90;86.40;;;;;;4955926;28;88646;-75
2023/06/13 04:32:17;;;;;;;19.55;11.75;;;14.90;87.70;;;;;;4955147;28;87851;-76
2023/06/13 04:34:52;;;;;;;17.92;12.63;;;15.00;87.90;;;;;;4953820;28;89943;-76
2023/06/13 04:37:26;;;;;;;17.20;11.90;;;15.10;88.10;;;;;;4955012;28;89759;-76
2023/06/13 04:39:53;;;;;;;16.67;12.25;;;15.10;86.90;;;;;;4955221;28;87747;-75
2023/06/13 04:42:27;;;;;;;16.10;11.52;;;15.20;87.50;;;;;;4955318;28;87843;-75
2023/06/13 04:44:53;;;;;;;16.35;11.90;;;15.20;87.60;;;;;;4955117;28;88515;-76
2023/06/13 04:47:23;;;;;;;22.33;11.75;;;15.30;87.20;;;;;;4955868;28;88333;-76
2023/06/13 04:49:51;;;;;;;16.75;12.65;;;15.30;86.10;;;;;;4955959;28;87327;-76
2023/06/13 04:52:18;;;;;;;18.77;12.95;;;15.40;85.20;;;;;;4954655;28;88487;-76
2023/06/13 04:54:45;;;;;;;17.58;11.77;;;15.50;83.20;;;;;;4953081;28;90329;-76
2023/06/13 04:57:12;;;;;;;19.50;12.43;;;15.60;82.60;;;;;;4954942;28;89050;-76
2023/06/13 04:59:39;;;;;;;15.98;12.02;;;15.70;82.60;;;;;;4954580;28;87913;-76
2023/06/13 05:02:04;;;;;;;17.48;11.55;;;15.80;82.00;;;;;;4954327;28;88365;-76
2023/06/13 05:04:30;;;;;;;16.13;11.23;;;15.90;80.90;;;;;;4954703;28;88748;-76
2023/06/13 05:06:57;;;;;;;19.52;10.95;;;16.00;79.90;;;;;;4953897;28;87684;-76
2023/06/13 05:09:23;;;;;;;15.20;11.15;;;16.10;79.80;;;;;;4952475;28;87477;-76
2023/06/13 05:11:49;;;;;;;14.00;10.15;;;16.20;79.50;;;;;;4951843;28;86856;-75
2023/06/13 05:14:15;;;;;;;20.95;12.55;;;16.30;78.60;;;;;;4952580;28;88643;-76
2023/06/13 05:16:40;;;;;;;15.18;9.45;;;16.50;77.90;;;;;;4952398;28;87873;-76
2023/06/13 05:19:06;;;;;;;20.55;10.02;;;16.60;78.80;;;;;;4951918;28;88501;-76
2023/06/13 05:21:33;;;;;;;19.52;9.32;;;16.70;78.90;;;;;;4951764;28;87780;-76
2023/06/13 05:23:58;;;;;;;17.75;8.73;;;16.70;79.00;;;;;;4953183;28;87690;-75
2023/06/13 05:26:24;;;;;;;17.90;8.90;;;16.80;77.90;;;;;;4954224;28;89273;-76
2023/06/13 05:28:50;;;;;;;15.93;8.50;;;16.90;78.90;;;;;;4954827;28;87906;-75
2023/06/13 05:31:16;;;;;;;18.73;8.70;;;17.00;78.00;;;;;;4955339;28;87642;-76
2023/06/13 05:33:42;;;;;;;19.00;7.95;;;17.00;76.70;;;;;;4954116;28;88511;-76
2023/06/13 05:36:08;;;;;;;12.60;6.82;;;17.10;76.90;;;;;;4955307;28;87419;-75
2023/06/13 05:38:33;;;;;;;12.60;6.80;;;17.30;77.00;;;;;;4954724;28;87498;-75
2023/06/13 05:40:59;;;;;;;12.95;6.03;;;17.30;75.90;;;;;;4954156;28;87567;-76
2023/06/13 05:43:25;;;;;;;11.68;6.55;;;17.40;75.10;;;;;;4954005;28;89629;-76
2023/06/13 05:45:50;;;;;;;14.82;6.30;;;17.50;73.00;;;;;;4968584;28;89167;-77
2023/06/13 05:48:16;;;;;;;16.83;6.03;;;17.60;73.20;;;;;;4954768;28;87697;-76
2023/06/13 05:50:42;;;;;;;16.88;6.22;;;17.80;71.60;;;;;;4953547;28;87990;-76
2023/06/13 05:53:07;;;;;;;12.90;6.10;;;17.90;71.10;;;;;;4954182;28;87723;-76
2023/06/13 05:55:33;;;;;;;12.90;5.93;;;18.00;70.20;;;;;;4936082;28;91049;-77
2023/06/13 05:57:58;;;;;;;11.27;6.20;;;18.20;70.30;;;;;;4954362;28;87615;-76
2023/06/13 06:00:24;;;;;;;9.23;5.97;;;18.30;69.60;;;;;;4968802;28;86814;-76
2023/06/13 06:02:50;;;;;;;7.78;5.43;;;18.40;70.10;;;;;;4953846;28;88370;-77
2023/06/13 06:05:19;;;;;;;8.52;5.90;;;18.50;69.50;;;;;;4953892;28;88182;-76
2023/06/13 06:07:45;;;;;;;7.30;4.68;;;18.60;69.10;;;;;;4957135;28;88781;-78
2023/06/13 06:10:11;;;;;;;9.73;5.18;;;18.70;69.50;;;;;;4939164;28;89111;-82
2023/06/13 06:12:37;;;;;;;7.15;5.18;;;18.90;68.00;;;;;;4957435;28;88872;-81
2023/06/13 06:15:03;;;;;;;7.15;5.13;;;19.00;67.80;;;;;;4955746;28;91462;-81
2023/06/13 06:17:29;;;;;;;10.02;5.60;;;19.10;68.00;;;;;;4957558;28;87801;-80
2023/06/13 06:19:55;;;;;;;11.57;5.45;;;19.30;68.30;;;;;;4957369;28;87866;-80
2023/06/13 06:22:21;;;;;;;19.30;5.22;;;19.40;66.90;;;;;;4957269;28;88130;-81
2023/06/13 06:24:46;;;;;;;14.05;5.85;;;19.50;65.80;;;;;;4939692;28;91120;-78
2023/06/13 06:27:12;;;;;;;8.27;5.45;;;19.70;64.30;;;;;;4971788;28;87746;-78
2023/06/13 06:29:39;;;;;;;8.35;5.07;;;19.80;62.80;;;;;;4955849;28;87990;-79
2023/06/13 06:32:06;;;;;;;8.32;5.20;;;19.90;63.40;;;;;;4955752;28;89040;-79
2023/06/13 06:34:32;;;;;;;9.82;5.57;;;20.00;64.40;;;;;;4956002;28;88913;-79
2023/06/13 06:36:58;;;;;;;12.02;6.30;;;20.20;63.20;;;;;;4956822;28;87809;-79
2023/06/13 06:39:24;;;;;;;7.57;5.55;;;20.30;63.70;;;;;;4956746;28;87859;-79
2023/06/13 06:41:49;;;;;;;10.40;5.28;;;20.50;63.40;;;;;;4956896;28;88390;-79
2023/06/13 06:44:15;;;;;;;13.57;5.40;;;20.60;62.30;;;;;;4938932;28;91580;-79
2023/06/13 06:46:41;;;;;;;10.18;5.00;;;20.70;62.10;;;;;;4971478;28;87656;-79
2023/06/13 06:49:07;;;;;;;9.10;5.32;;;20.80;61.20;;;;;;4957265;28;87353;-79
2023/06/13 06:51:33;;;;;;;7.47;5.35;;;21.00;61.60;;;;;;4955925;28;87749;-79
2023/06/13 06:53:59;;;;;;;10.05;4.97;;;21.10;62.10;;;;;;4955558;28;87712;-79
2023/06/13 06:56:25;;;;;;;10.77;4.80;;;21.30;60.30;;;;;;4955491;28;88319;-79
2023/06/13 06:58:51;;;;;;;11.57;5.13;;;21.50;62.50;;;;;;4956035;28;87670;-79
2023/06/13 07:01:18;;;;;;;9.02;4.50;;;21.60;61.40;;;;;;4938187;28;89858;-80
2023/06/13 07:03:44;;;;;;;9.75;5.13;;;21.80;61.00;;;;;;4955881;28;88288;-79
2023/06/13 07:06:11;;;;;;;7.13;4.88;;;21.90;58.50;;;;;;4956362;28;87512;-78
2023/06/13 07:08:37;;;;;;;10.98;5.28;;;22.00;58.00;;;;;;4954118;28;89736;-80
2023/06/13 07:11:03;;;;;;;9.45;4.82;;;22.20;59.40;;;;;;4955685;28;89347;-79
2023/06/13 07:13:28;;;;;;;7.18;4.85;;;22.40;59.80;;;;;;4956767;28;88533;-78
2023/06/13 07:15:54;;;;;;;7.82;4.78;;;22.60;60.00;;;;;;4956935;28;87520;-81
2023/06/13 07:18:20;;;;;;;6.38;4.82;;;22.80;59.10;;;;;;4955621;28;88182;-80
2023/06/13 07:20:46;;;;;;;6.93;4.38;;;22.90;59.00;;;;;;4955558;28;89260;-81
2023/06/13 07:23:12;;;;;;;5.57;4.10;;;23.10;59.10;;;;;;4938710;28;92561;-80
2023/06/13 07:25:40;;;;;;;8.07;4.30;;;23.30;59.10;;;;;;4956448;28;87693;-80
2023/06/13 07:28:07;;;;;;;8.05;3.97;;;23.50;58.00;;;;;;4956012;28;88358;-81
2023/06/13 07:30:32;;;;;;;6.45;4.95;;;23.70;57.50;;;;;;4956707;28;87511;-80
2023/06/13 07:32:58;;;;;;;4.90;4.13;;;23.90;53.90;;;;;;4956740;28;88329;-80
2023/06/13 07:35:24;;;;;;;9.90;4.95;;;24.00;56.90;;;;;;4957172;28;87822;-80
2023/06/13 07:37:53;;;;;;;6.30;4.43;;;24.20;52.70;;;;;;4957318;28;87422;-80
2023/06/13 07:40:20;;;;;;;7.40;4.68;;;24.30;55.60;;;;;;4956205;28;88738;-80
2023/06/13 07:42:45;;;;;;;8.43;4.40;;;24.50;52.40;;;;;;4956664;28;89075;-80
2023/06/13 07:45:11;;;;;;;5.90;4.47;;;24.70;54.40;;;;;;4959809;28;88557;-80
2023/06/13 07:47:37;;;;;;;6.85;4.60;;;24.90;54.30;;;;;;4959517;28;87780;-80
2023/06/13 07:50:02;;;;;;;8.65;5.03;;;25.10;52.80;;;;;;4959578;28;87533;-81
2023/06/13 07:52:28;;;;;;;6.88;4.25;;;25.40;53.00;;;;;;4941500;28;89688;-81
2023/06/13 07:54:54;;;;;;;8.45;4.88;;;25.60;52.80;;;;;;4959910;28;87603;-80
2023/06/13 07:57:21;;;;;;;4.80;4.07;;;25.80;49.70;;;;;;4958003;28;90341;-81
2023/06/13 07:59:46;;;;;;;6.88;4.85;;;25.90;49.10;;;;;;4941704;28;91439;-80
2023/06/13 08:02:12;;;;;;;6.70;3.97;;;26.10;51.80;;;;;;4960284;28;88763;-81
2023/06/13 08:04:37;;;;;;;6.47;4.28;;;26.30;47.70;;;;;;4957784;28;87696;-82
2023/06/13 08:07:04;;;;;;;4.82;3.95;;;26.50;51.10;;;;;;4959401;28;87715;-82
2023/06/13 08:09:29;;;;;;;4.18;3.72;;;26.70;49.60;;;;;;4956901;28;89612;-82
2023/06/13 08:11:58;;;;;;;4.45;3.90;;;26.90;50.00;;;;;;4957674;28;90999;-83
2023/06/13 08:14:23;;;;;;;5.32;4.20;;;27.10;50.00;;;;;;4941220;28;88145;-82
2023/06/13 08:16:49;;;;;;;6.32;4.03;;;27.30;48.70;;;;;;4973660;28;89031;-83
2023/06/13 08:19:15;;;;;;;5.88;4.18;;;27.50;48.10;;;;;;4972875;28;89704;-83
2023/06/13 08:21:41;;;;;;;8.73;4.30;;;27.60;44.20;;;;;;4957900;28;90879;-82
2023/06/13 08:24:06;;;;;;;5.85;4.40;;;27.40;45.80;;;;;;4941840;28;87439;-82
2023/06/13 08:26:32;;;;;;;4.97;4.28;;;27.60;46.50;;;;;;4957643;28;90734;-83
2023/06/13 08:29:01;;;;;;;5.60;3.97;;;27.70;44.70;;;;;;4958389;28;89328;-82
2023/06/13 08:31:27;;;;;;;7.35;4.38;;;27.90;46.80;;;;;;4958460;28;88344;-83
2023/06/13 08:33:55;;;;;;;5.35;3.65;;;28.10;46.00;;;;;;4957583;28;88614;-83
2023/06/13 08:36:21;;;;;;;10.30;4.60;;;28.30;45.80;;;;;;4957954;28;90911;-82
2023/06/13 08:38:47;;;;;;;5.72;4.07;;;28.50;46.10;;;;;;4956123;28;92308;-83
2023/06/13 08:41:14;;;;;;;7.97;3.78;;;28.80;45.90;;;;;;4942787;28;91311;-82
2023/06/13 08:43:41;;;;;;;6.95;4.13;;;29.10;45.10;;;;;;4957639;28;87359;-82
2023/06/13 08:46:07;;;;;;;7.25;4.57;;;29.10;41.90;;;;;;4956680;28;90766;-82
2023/06/13 08:48:32;;;;;;;5.35;4.15;;;29.20;45.50;;;;;;4972485;28;91430;-82
2023/06/13 08:51:04;;;;;;;4.90;4.03;;;29.40;44.40;;;;;;4957170;28;90696;-83
2023/06/13 08:53:31;;;;;;;4.85;3.75;;;29.60;44.20;;;;;;4940647;28;88266;-83
2023/06/13 08:56:03;;;;;;;6.60;3.90;;;29.70;44.50;;;;;;4972437;28;90550;-83
2023/06/13 08:58:33;;;;;;;5.43;4.30;;;29.90;43.00;;;;;;4956880;28;92355;-83
2023/06/13 09:01:02;;;;;;;6.18;3.72;;;30.10;44.30;;;;;;4957416;28;91843;-83
2023/06/13 09:03:29;;;;;;;4.38;3.97;;;30.30;43.30;;;;;;4940822;28;87655;-83
2023/06/13 09:05:55;;;;;;;6.93;4.35;;;30.50;43.00;;;;;;4940400;28;90489;-83
2023/06/13 09:08:24;;;;;;;8.82;4.28;;;30.60;41.20;;;;;;4940369;28;90249;-82
2023/06/13 09:10:51;;;;;;;6.80;5.03;;;30.70;41.00;;;;;;4940524;28;91319;-83
2023/06/13 09:13:17;;;;;;;7.07;3.88;;;31.00;41.90;;;;;;4958581;28;87599;-83
2023/06/13 09:15:44;;;;;;;8.90;4.38;;;31.10;42.40;;;;;;4940639;28;91157;-83
2023/06/13 09:18:11;;;;;;;5.40;3.92;;;31.20;41.00;;;;;;4941343;28;87802;-84
2023/06/13 09:20:37;;;;;;;7.05;4.30;;;31.30;40.80;;;;;;4940924;28;90923;-83
2023/06/13 09:23:03;;;;;;;11.00;5.00;;;31.40;40.50;;;;;;4973427;28;88298;-83
2023/06/13 09:25:35;;;;;;;8.18;4.35;;;31.50;38.90;;;;;;4956691;28;87810;-82
2023/06/13 09:28:30;;;;;;;4.93;3.83;;;31.40;40.90;;;;;;4972925;28;91494;-83
2023/06/13 09:30:59;;;;;;;7.40;3.67;;;31.60;40.10;;;;;;4940404;28;91187;-82
2023/06/13 09:33:25;;;;;;;4.88;3.83;;;31.60;40.60;;;;;;4940835;28;87731;-82
2023/06/13 09:35:51;;;;;;;4.38;3.58;;;31.80;41.20;;;;;;4958372;28;87348;-83
2023/06/13 09:38:23;;;;;;;7.38;4.03;;;32.10;40.50;;;;;;4940565;28;90610;-83
2023/06/13 09:40:58;;;;;;;7.82;3.92;;;32.20;40.20;;;;;;4955742;28;91105;-83
2023/06/13 09:43:24;;;;;;;6.72;3.97;;;32.50;39.70;;;;;;4973286;28;87100;-85
2023/06/13 09:45:51;;;;;;;4.70;3.80;;;32.70;39.40;;;;;;4956886;28;89096;-81
2023/06/13 09:48:20;;;;;;;5.60;4.05;;;32.80;39.70;;;;;;4957432;28;90502;-81
2023/06/13 09:50:46;;;;;;;5.13;3.28;;;33.00;38.70;;;;;;4940047;28;91630;-81
2023/06/13 09:53:12;;;;;;;9.13;3.80;;;33.00;39.00;;;;;;4940012;28;87830;-81
2023/06/13 09:55:38;;;;;;;6.88;3.67;;;33.20;39.50;;;;;;4955811;28;90798;-81
2023/06/13 09:58:04;;;;;;;5.28;4.03;;;33.40;38.70;;;;;;4957634;28;88212;-81
2023/06/13 10:00:30;;;;;;;5.03;3.70;;;33.50;36.00;;;;;;4957910;28;87567;-81
2023/06/13 10:02:56;;;;;;;8.00;4.32;;;33.50;38.00;;;;;;4957929;28;87048;-81
2023/06/13 10:05:22;;;;;;;5.53;4.07;;;33.60;38.00;;;;;;4957275;28;87358;-81
2023/06/13 10:07:48;;;;;;;5.80;4.05;;;33.50;38.40;;;;;;4957080;28;88498;-81
2023/06/13 10:10:14;;;;;;;7.07;4.68;;;33.70;38.00;;;;;;4956964;28;88246;-79
2023/06/13 10:12:47;;;;;;;6.57;3.92;;;33.90;36.50;;;;;;4972207;28;88779;-79
2023/06/13 10:15:19;;;;;;;5.63;4.17;;;34.20;38.30;;;;;;4957327;28;87641;-79
2023/06/13 10:17:46;;;;;;;4.40;3.95;;;34.50;37.60;;;;;;4957170;28;88673;-79
2023/06/13 10:20:15;;;;;;;5.85;3.90;;;34.50;36.10;;;;;;4955676;28;88256;-78
2023/06/13 10:22:41;;;;;;;7.15;4.03;;;34.60;37.30;;;;;;4939118;28;87700;-77
2023/06/13 10:25:09;;;;;;;18.13;5.05;;;34.80;37.00;;;;;;4954877;28;88596;-78
2023/06/13 10:27:39;;;;;;;13.45;4.50;;;34.50;35.30;;;;;;4970819;28;89825;-78
2023/06/13 10:30:31;;;;;;;9.60;4.13;;;34.50;34.40;;;;;;4955016;28;90136;-78
2023/06/13 10:33:22;;;;;;;7.75;4.70;;;34.50;37.60;;;;;;4956876;28;87608;-78
2023/06/13 10:36:33;;;;;;;10.55;4.50;;;34.70;35.40;;;;;;4956226;28;88463;-78
2023/06/13 10:39:09;;;;;;;6.22;3.85;;;34.80;36.60;;;;;;4956070;28;89306;-78
2023/06/13 10:41:59;;;;;;;5.00;4.15;;;35.30;37.60;;;;;;4956260;28;89456;-80
2023/06/13 10:44:39;;;;;;;6.25;4.20;;;35.40;35.60;;;;;;4956897;28;87062;-80
2023/06/13 10:47:06;;;;;;;7.68;4.05;;;35.60;35.60;;;;;;4939092;28;90353;-80
2023/06/13 10:49:39;;;;;;;7.00;4.03;;;35.60;36.40;;;;;;4956190;28;87707;-80
2023/06/13 10:52:12;;;;;;;11.50;4.28;;;35.70;34.20;;;;;;4956157;28;88120;-78
2023/06/13 10:54:38;;;;;;;;;;;35.80;35.00;;;;;;4957242;28;87356;-78
2023/06/13 10:57:05;;;;;;;8.40;3.60;;;35.80;34.30;;;;;;4958073;28;87390;-78
2023/06/13 10:59:39;;;;;;;5.72;3.67;;;35.90;33.30;;;;;;4956361;28;88743;-78
2023/06/13 11:02:12;;;;;;;6.35;4.07;;;36.20;33.30;;;;;;4956093;28;88303;-78
2023/06/13 11:04:40;;;;;;;7.07;3.80;;;36.00;34.20;;;;;;4938221;28;88360;-78
2023/06/13 11:07:33;;;;;;;7.53;3.50;;;36.00;32.70;;;;;;4955948;28;87758;-79
2023/06/13 11:10:15;;;;;;;9.60;3.90;;;36.10;31.60;;;;;;4951129;28;89181;-79
2023/06/13 11:12:42;;;;;;;8.30;3.60;;;36.20;33.30;;;;;;4954037;28;90204;-79
2023/06/13 11:15:23;;;;;;;11.63;4.22;;;36.20;31.80;;;;;;4954873;28;87620;-80
2023/06/13 11:18:07;;;;;;;6.05;3.50;;;36.30;35.70;;;;;;4954252;28;89529;-80
2023/06/13 11:20:33;;;;;;;5.13;3.70;;;36.40;34.10;;;;;;4940391;28;89307;-80
2023/06/13 11:22:59;;;;;;;7.00;4.03;;;36.70;33.80;;;;;;4959399;28;88869;-80
2023/06/13 11:25:24;;;;;;;8.55;3.60;;;36.90;32.50;;;;;;4958129;28;87996;-80
2023/06/13 11:27:50;;;;;;;6.97;3.63;;;37.00;31.90;;;;;;4941220;28;89496;-80
2023/06/13 11:30:17;;;;;;;6.85;3.30;;;37.00;32.70;;;;;;4958559;28;89864;-80
2023/06/13 11:32:44;;;;;;;8.63;3.55;;;37.00;31.10;;;;;;4958735;28;89339;-80
2023/06/13 11:35:12;;;;;;;7.15;3.40;;;37.00;32.20;;;;;;4941520;28;87174;-80
2023/06/13 11:37:46;;;;;;;5.68;3.20;;;37.00;31.70;;;;;;4959070;28;87429;-79
2023/06/13 11:40:21;;;;;;;5.68;3.40;;;37.10;30.50;;;;;;4959050;28;87755;-80
2023/06/13 11:42:49;;;;;;;4.40;3.10;;;37.10;31.50;;;;;;4973547;28;91486;-80
2023/06/13 11:45:15;;;;;;;3.53;2.92;;;37.30;31.80;;;;;;4958254;28;88045;-80
2023/06/13 11:47:44;;;;;;;4.38;3.13;;;37.50;31.00;;;;;;4958888;28;88706;-80
2023/06/13 11:50:10;;;;;;;4.97;3.30;;;37.40;31.10;;;;;;4958652;28;88818;-80
2023/06/13 11:52:36;;;;;;;6.15;3.13;;;37.40;31.90;;;;;;4959082;28;88784;-79
2023/06/13 11:55:16;;;;;;;4.82;2.90;;;37.30;31.70;;;;;;4958312;28;88767;-80
2023/06/13 11:57:47;;;;;;;5.82;3.35;;;37.30;31.80;;;;;;4940904;28;89152;-80
2023/06/13 12:00:14;;;;;;;9.35;3.35;;;37.40;30.80;;;;;;4958511;28;88590;-80
2023/06/13 12:02:40;;;;;;;3.55;3.00;;;37.70;31.10;;;;;;4958695;28;87824;-80
2023/06/13 12:05:09;;;;;;;5.32;3.40;;;37.80;30.70;;;;;;4958508;28;87315;-80
2023/06/13 12:07:35;;;;;;;3.95;3.10;;;37.70;29.70;;;;;;4958167;28;88040;-80
2023/06/13 12:10:01;;;;;;;4.22;3.10;;;37.70;30.40;;;;;;4956884;28;88667;-80
2023/06/13 12:12:26;;;;;;;4.68;3.50;;;37.80;30.60;;;;;;4958608;28;87565;-80
2023/06/13 12:14:54;;;;;;;4.85;3.25;;;37.80;28.80;;;;;;4958435;28;87627;-80
2023/06/13 12:17:21;;;;;;;5.90;3.10;;;37.90;29.80;;;;;;4958221;28;87710;-81
2023/06/13 12:19:46;;;;;;;3.80;3.22;;;37.90;29.60;;;;;;4957746;28;89967;-80
2023/06/13 12:22:13;;;;;;;4.55;3.00;;;37.80;29.70;;;;;;4958531;28;87583;-81
2023/06/13 12:24:39;;;;;;;4.10;2.55;;;37.90;29.40;;;;;;4958047;28;87397;-80
2023/06/13 12:27:07;;;;;;;7.30;3.22;;;37.70;30.00;;;;;;4957586;28;87956;-80
2023/06/13 12:29:34;;;;;;;5.05;2.92;;;37.70;29.70;;;;;;4956974;28;89277;-80
2023/06/13 12:32:03;;;;;;;4.35;2.90;;;37.70;30.00;;;;;;4957631;28;88396;-81
2023/06/13 12:34:34;;;;;;;2.95;2.58;;;37.90;30.70;;;;;;4940419;28;87731;-81
2023/06/13 12:37:03;;;;;;;5.13;2.78;;;38.20;29.90;;;;;;4958722;28;86669;-80
2023/06/13 12:39:30;;;;;;;4.93;2.92;;;38.50;29.50;;;;;;4957347;28;88181;-80
2023/06/13 12:42:07;;;;;;;3.95;2.75;;;38.60;28.90;;;;;;4957866;28;88207;-80
2023/06/13 12:44:34;;;;;;;6.30;3.05;;;38.60;29.90;;;;;;4955767;28;88600;-81